Αρχική σελίδα
METAR-TAF:

METAR-TAF

Αεροδρόμια :

Denison Municipal Airport

Denison, Αϊόβα, Ηνωμένες Πολιτείες Αμερικής

γεωγραφικό πλάτος: 41-59N, γεωγραφικό μήκος: 095-23W, υψόμετρο: 388 μ

Παρών καιρός

Η αναφορά έγινε 25 λεπτά πριν, στις 10:55 UTC
Άνεμος 8 kt από Α/NA, μεταβλητός μεταξύ Α και ΝA
Θερμοκρασία 18°C
Υγρασία 100%
Πίεση 1013 hPa
Ορατότητα: 1.6 χλμ
Νεφοσκεπής σε ύψος 200 πόδια
Αχλής

METAR: KDNS 191055Z AUTO 12008KT 080V140 1SM BR OVC002 18/18 A2991 RMK AO2

Χρόνος: 06:20 (11:20 UTC)


TAF: λείπει

Μετεωρολογικές αναφορές και προγνώσεις για περισσότερα από 4000 αεροδρόμια (δελτία METAR και TAF).

Οι διαθέσιμοι σταθμοί απεικονίζονται στο χάρτη με κίτρινες και κόκκινες κουκκίδες.

Μετακινήστε το ποντίκι πάνω από τις κουκκίδες για να δείτε το όνομα του σταθμού.

Στη συνέχεια, κάντε κλικ για να δείτε τις μετεωρολογικές αναφορές και τις προγνώσεις καιρού.

Για να αλλάξετε το χάρτη: κάντε κλικ στα πράσινα κουμπιά με τον μαύρο σταυρό για να ζουμάρετε, στο πράσινο κουμπί με την παύλα για να αφαιρέσετε το ζουμ ή στα πράσινα βέλη για να αντιπαραβάλλετε χάρτες.


METAR-TAF: